Time,TemperatureF,DewpointF,PressureIn,WindDirection,WindDirectionDegrees,WindSpeedMPH,WindSpeedGustMPH,Humidity,HourlyPrecipIn,Conditions,Clouds,dailyrainin,SoftwareType,DateUTC
2013-05-17 00:02:00,68.3,60.0,29.90,SW,214,0.0,-999.0,76,-99.99,,,0.23,weatherlink.com 1.10,2013-05-17 05:02:00,
2013-05-17 00:16:00,68.1,61.0,29.91,SW,214,0.0,-999.0,77,-99.99,,,0.23,weatherlink.com 1.10,2013-05-17 05:16:00,
2013-05-17 00:31:00,67.8,61.0,29.92,SW,214,0.0,-999.0,78,-99.99,,,0.23,weatherlink.com 1.10,2013-05-17 05:31:00,
2013-05-17 00:46:00,67.4,60.0,29.91,SW,214,0.0,-999.0,78,-99.99,,,0.00,weatherlink.com 1.10,2013-05-17 05:46:00,
2013-05-17 01:02:00,67.1,60.0,29.91,SW,214,0.0,-999.0,78,-99.99,,,0.00,weatherlink.com 1.10,2013-05-17 06:02:00,
2013-05-17 01:16:00,66.7,60.0,29.91,SW,214,0.0,-999.0,79,-99.99,,,0.00,weatherlink.com 1.10,2013-05-17 06:16:00,
2013-05-17 01:31:00,65.6,60.0,29.91,SW,214,0.0,-999.0,82,-99.99,,,0.00,weatherlink.com 1.10,2013-05-17 06:31:00,
2013-05-17 01:46:00,65.3,60.0,29.91,SW,214,0.0,-999.0,83,-99.99,,,0.00,weatherlink.com 1.10,2013-05-17 06:46:00,
2013-05-17 02:02:00,64.9,60.0,29.91,SW,214,0.0,-999.0,83,-99.99,,,0.00,weatherlink.com 1.10,2013-05-17 07:02:00,
2013-05-17 02:17:00,64.4,60.0,29.91,SW,214,0.0,-999.0,85,-99.99,,,0.00,weatherlink.com 1.10,2013-05-17 07:17:00,
2013-05-17 02:32:00,64.3,59.0,29.92,SW,214,0.0,-999.0,84,-99.99,,,0.00,weatherlink.com 1.10,2013-05-17 07:32:00,
2013-05-17 02:47:00,64.0,59.0,29.92,SW,214,0.0,-999.0,84,-99.99,,,0.00,weatherlink.com 1.10,2013-05-17 07:47:00,
2013-05-17 03:02:00,63.7,59.0,29.92,SW,214,0.0,-999.0,85,-99.99,,,0.00,weatherlink.com 1.10,2013-05-17 08:02:00,
2013-05-17 03:17:00,63.3,59.0,29.92,SW,214,0.0,-999.0,86,-99.99,,,0.00,weatherlink.com 1.10,2013-05-17 08:17:00,
2013-05-17 03:32:00,63.2,59.0,29.92,SW,214,0.0,-999.0,86,-99.99,,,0.00,weatherlink.com 1.10,2013-05-17 08:32:00,
2013-05-17 03:47:00,63.1,59.0,29.92,SW,214,0.0,-999.0,87,-99.99,,,0.00,weatherlink.com 1.10,2013-05-17 08:47:00,
2013-05-17 04:02:00,62.8,59.0,29.92,SW,214,0.0,-999.0,87,-99.99,,,0.00,weatherlink.com 1.10,2013-05-17 09:02:00,
2013-05-17 04:17:00,62.5,59.0,29.92,SW,214,0.0,-999.0,88,-99.99,,,0.00,weatherlink.com 1.10,2013-05-17 09:17:00,
2013-05-17 04:32:00,62.3,59.0,29.92,SW,214,0.0,-999.0,89,-99.99,,,0.00,weatherlink.com 1.10,2013-05-17 09:32:00,
2013-05-17 04:47:00,62.1,59.0,29.92,SW,214,0.0,-999.0,89,-99.99,,,0.00,weatherlink.com 1.10,2013-05-17 09:47:00,
2013-05-17 05:02:00,61.8,59.0,29.92,SW,214,0.0,-999.0,89,-99.99,,,0.00,weatherlink.com 1.10,2013-05-17 10:02:00,
2013-05-17 05:17:00,62.0,59.0,29.93,SW,214,0.0,-999.0,90,-99.99,,,0.00,weatherlink.com 1.10,2013-05-17 10:17:00,
2013-05-17 05:32:00,61.9,59.0,29.93,SW,214,0.0,-999.0,90,-99.99,,,0.00,weatherlink.com 1.10,2013-05-17 10:32:00,
2013-05-17 05:47:00,61.1,58.0,29.94,SSW,205,0.0,-999.0,90,-99.99,,,0.00,weatherlink.com 1.10,2013-05-17 10:47:00,
2013-05-17 06:02:00,61.1,59.0,29.94,SSW,196,0.0,-999.0,91,-99.99,,,0.00,weatherlink.com 1.10,2013-05-17 11:02:00,
2013-05-17 06:17:00,61.2,59.0,29.94,SSW,195,0.0,-999.0,92,-99.99,,,0.00,weatherlink.com 1.10,2013-05-17 11:17:00,
2013-05-17 06:32:00,61.6,59.0,29.95,SSW,195,0.0,-999.0,92,-99.99,,,0.00,weatherlink.com 1.10,2013-05-17 11:32:00,
2013-05-17 06:47:00,62.0,60.0,29.95,SSW,192,2.0,-999.0,92,-99.99,,,0.00,weatherlink.com 1.10,2013-05-17 11:47:00,
2013-05-17 07:02:00,62.5,60.0,29.96,South,191,0.0,-999.0,92,-99.99,,,0.00,weatherlink.com 1.10,2013-05-17 12:02:00,
2013-05-17 07:17:00,63.4,61.0,29.96,South,191,0.0,-999.0,92,-99.99,,,0.00,weatherlink.com 1.10,2013-05-17 12:17:00,
2013-05-17 07:32:00,64.7,62.0,29.97,South,191,0.0,-999.0,92,-99.99,,,0.00,weatherlink.com 1.10,2013-05-17 12:32:00,
2013-05-17 07:47:00,66.2,63.0,29.97,South,180,3.0,-999.0,90,-99.99,,,0.00,weatherlink.com 1.10,2013-05-17 12:47:00,
2013-05-17 08:02:00,67.5,63.0,29.97,South,179,0.0,-999.0,86,-99.99,,,0.00,weatherlink.com 1.10,2013-05-17 13:02:00,
2013-05-17 08:17:00,69.1,64.0,29.96,South,178,0.0,-999.0,83,-99.99,,,0.00,weatherlink.com 1.10,2013-05-17 13:17:00,
2013-05-17 08:32:00,70.3,64.0,29.97,SSW,194,2.0,-999.0,80,-99.99,,,0.00,weatherlink.com 1.10,2013-05-17 13:32:00,
2013-05-17 08:47:00,71.3,64.0,29.97,South,172,5.0,-999.0,78,-99.99,,,0.00,weatherlink.com 1.10,2013-05-17 13:47:00,
2013-05-17 09:03:00,72.0,64.0,29.96,SE,142,3.0,-999.0,77,-99.99,,,0.00,weatherlink.com 1.10,2013-05-17 14:03:00,
2013-05-17 09:18:00,72.8,64.0,29.96,SE,141,4.0,-999.0,75,-99.99,,,0.00,weatherlink.com 1.10,2013-05-17 14:18:00,
2013-05-17 09:33:00,74.5,65.0,29.96,SE,130,4.0,-999.0,71,-99.99,,,0.00,weatherlink.com 1.10,2013-05-17 14:33:00,
2013-05-17 09:48:00,76.0,63.0,29.96,SE,135,0.0,-999.0,65,-99.99,,,0.00,weatherlink.com 1.10,2013-05-17 14:48:00,
2013-05-17 10:03:00,76.6,63.0,29.96,SE,138,0.0,-999.0,63,-99.99,,,0.00,weatherlink.com 1.10,2013-05-17 15:03:00,
2013-05-17 10:18:00,77.3,63.0,29.95,SSE,152,4.0,-999.0,61,-99.99,,,0.00,weatherlink.com 1.10,2013-05-17 15:18:00,
2013-05-17 10:33:00,78.0,64.0,29.95,South,175,3.0,-999.0,62,-99.99,,,0.00,weatherlink.com 1.10,2013-05-17 15:33:00,
2013-05-17 10:48:00,77.9,63.0,29.95,SE,130,0.0,-999.0,60,-99.99,,,0.00,weatherlink.com 1.10,2013-05-17 15:48:00,
2013-05-17 11:03:00,78.1,63.0,29.95,SE,128,9.0,-999.0,61,-99.99,,,0.00,weatherlink.com 1.10,2013-05-17 16:03:00,
2013-05-17 11:18:00,78.5,63.0,29.95,SE,142,11.0,-999.0,59,-99.99,,,0.00,weatherlink.com 1.10,2013-05-17 16:18:00,
2013-05-17 11:33:00,78.8,63.0,29.95,SE,127,2.0,-999.0,58,-99.99,,,0.00,weatherlink.com 1.10,2013-05-17 16:33:00,
2013-05-17 11:48:00,79.4,63.0,29.94,SSE,148,11.0,-999.0,57,-99.99,,,0.00,weatherlink.com 1.10,2013-05-17 16:48:00,
2013-05-17 12:03:00,79.6,63.0,29.94,SSE,162,11.0,-999.0,58,-99.99,,,0.00,weatherlink.com 1.10,2013-05-17 17:03:00,
2013-05-17 12:18:00,79.1,63.0,29.94,South,172,3.0,-999.0,58,-99.99,,,0.00,weatherlink.com 1.10,2013-05-17 17:18:00,
2013-05-17 12:33:00,79.4,62.0,29.94,SSW,198,2.0,-999.0,56,-99.99,,,0.00,weatherlink.com 1.10,2013-05-17 17:33:00,
2013-05-17 12:48:00,79.6,62.0,29.94,South,183,7.0,-999.0,56,-99.99,,,0.00,weatherlink.com 1.10,2013-05-17 17:48:00,
2013-05-17 13:03:00,78.8,63.0,29.93,SSE,159,0.0,-999.0,58,-99.99,,,0.00,weatherlink.com 1.10,2013-05-17 18:03:00,
2013-05-17 13:18:00,77.9,64.0,29.93,SE,144,5.0,-999.0,62,-99.99,,,0.00,weatherlink.com 1.10,2013-05-17 18:18:00,
2013-05-17 13:33:00,77.8,64.0,29.93,SE,131,3.0,-999.0,62,-99.99,,,0.00,weatherlink.com 1.10,2013-05-17 18:33:00,
2013-05-17 13:48:00,78.3,62.0,29.92,SSE,148,9.0,-999.0,58,-99.99,,,0.00,weatherlink.com 1.10,2013-05-17 18:48:00,
2013-05-17 14:03:00,78.9,63.0,29.91,SE,146,7.0,-999.0,58,-99.99,,,0.00,weatherlink.com 1.10,2013-05-17 19:03:00,
2013-05-17 14:18:00,80.6,62.0,29.91,SSE,148,0.0,-999.0,54,-99.99,,,0.00,weatherlink.com 1.10,2013-05-17 19:18:00,
2013-05-17 14:33:00,80.9,62.0,29.90,South,182,3.0,-999.0,53,-99.99,,,0.00,weatherlink.com 1.10,2013-05-17 19:33:00,
2013-05-17 14:48:00,80.1,63.0,29.90,SE,127,0.0,-999.0,56,-99.99,,,0.00,weatherlink.com 1.10,2013-05-17 19:48:00,
2013-05-17 15:04:00,76.7,64.0,29.90,ESE,121,10.0,-999.0,66,-99.99,,,0.00,weatherlink.com 1.10,2013-05-17 20:04:00,
2013-05-17 15:19:00,69.0,63.0,29.91,ESE,103,5.0,-999.0,80,-99.99,,,0.07,weatherlink.com 1.10,2013-05-17 20:19:00,
2013-05-17 15:34:00,68.4,64.0,29.91,ESE,109,0.0,-999.0,85,-99.99,,,0.07,weatherlink.com 1.10,2013-05-17 20:34:00,
2013-05-17 15:49:00,68.7,65.0,29.91,SW,227,0.0,-999.0,87,-99.99,,,0.07,weatherlink.com 1.10,2013-05-17 20:49:00,
2013-05-17 16:04:00,69.7,65.0,29.90,West,275,0.0,-999.0,86,-99.99,,,0.07,weatherlink.com 1.10,2013-05-17 21:04:00,
2013-05-17 16:19:00,70.3,65.0,29.91,WSW,240,0.0,-999.0,83,-99.99,,,0.07,weatherlink.com 1.10,2013-05-17 21:19:00,
2013-05-17 16:33:00,69.1,65.0,29.92,WNW,302,1.0,-999.0,86,-99.99,,,0.23,weatherlink.com 1.10,2013-05-17 21:33:00,
2013-05-17 16:48:00,68.0,65.0,29.91,NNW,332,0.0,-999.0,89,-99.99,,,0.29,weatherlink.com 1.10,2013-05-17 21:48:00,
2013-05-17 17:04:00,68.0,65.0,29.91,NNW,332,0.0,-999.0,91,-99.99,,,0.29,weatherlink.com 1.10,2013-05-17 22:04:00,
2013-05-17 17:19:00,68.1,66.0,29.92,North,5,0.0,-999.0,92,-99.99,,,0.29,weatherlink.com 1.10,2013-05-17 22:19:00,
2013-05-17 17:34:00,68.1,66.0,29.92,NNE,33,2.0,-999.0,92,-99.99,,,0.29,weatherlink.com 1.10,2013-05-17 22:34:00,
2013-05-17 17:49:00,67.9,65.0,29.92,NE,37,0.0,-999.0,91,-99.99,,,0.29,weatherlink.com 1.10,2013-05-17 22:49:00,
2013-05-17 18:04:00,67.7,65.0,29.92,NNE,27,3.0,-999.0,90,-99.99,,,0.29,weatherlink.com 1.10,2013-05-17 23:04:00,
2013-05-17 18:19:00,67.9,65.0,29.93,NE,45,2.0,-999.0,91,-99.99,,,0.29,weatherlink.com 1.10,2013-05-17 23:19:00,
2013-05-17 18:34:00,68.0,65.0,29.93,NE,34,4.0,-999.0,90,-99.99,,,0.29,weatherlink.com 1.10,2013-05-17 23:34:00,
2013-05-17 18:49:00,68.0,65.0,29.93,NE,37,2.0,-999.0,89,-99.99,,,0.29,weatherlink.com 1.10,2013-05-17 23:49:00,
2013-05-17 19:04:00,67.9,65.0,29.93,NE,49,5.0,-999.0,89,-99.99,,,0.29,weatherlink.com 1.10,2013-05-18 00:04:00,
2013-05-17 19:19:00,67.6,65.0,29.94,NNE,31,0.0,-999.0,90,-99.99,,,0.29,weatherlink.com 1.10,2013-05-18 00:19:00,
2013-05-17 19:34:00,67.0,64.0,29.94,NNE,26,0.0,-999.0,89,-99.99,,,0.29,weatherlink.com 1.10,2013-05-18 00:34:00,
2013-05-17 19:49:00,67.0,64.0,29.94,ENE,61,0.0,-999.0,89,-99.99,,,0.29,weatherlink.com 1.10,2013-05-18 00:49:00,
2013-05-17 20:04:00,66.9,63.0,29.94,NE,49,0.0,-999.0,88,-99.99,,,0.29,weatherlink.com 1.10,2013-05-18 01:04:00,
2013-05-17 20:19:00,66.9,63.0,29.95,NE,56,0.0,-999.0,88,-99.99,,,0.29,weatherlink.com 1.10,2013-05-18 01:19:00,
2013-05-17 20:34:00,67.0,63.0,29.95,ENE,69,3.0,-999.0,88,-99.99,,,0.29,weatherlink.com 1.10,2013-05-18 01:34:00,
2013-05-17 20:49:00,67.0,63.0,29.96,ESE,111,0.0,-999.0,88,-99.99,,,0.29,weatherlink.com 1.10,2013-05-18 01:49:00,
2013-05-17 21:04:00,66.8,63.0,29.97,SE,137,2.0,-999.0,88,-99.99,,,0.29,weatherlink.com 1.10,2013-05-18 02:04:00,
2013-05-17 21:19:00,66.6,63.0,29.97,ESE,119,0.0,-999.0,88,-99.99,,,0.29,weatherlink.com 1.10,2013-05-18 02:19:00,
2013-05-17 21:34:00,66.3,63.0,29.97,ESE,115,0.0,-999.0,89,-99.99,,,0.29,weatherlink.com 1.10,2013-05-18 02:34:00,
2013-05-17 21:49:00,66.0,63.0,29.97,ESE,115,0.0,-999.0,89,-99.99,,,0.29,weatherlink.com 1.10,2013-05-18 02:49:00,
2013-05-17 22:04:00,65.6,63.0,29.97,ESE,115,0.0,-999.0,90,-99.99,,,0.29,weatherlink.com 1.10,2013-05-18 03:04:00,
2013-05-17 22:19:00,65.2,62.0,29.97,ESE,115,0.0,-999.0,90,-99.99,,,0.29,weatherlink.com 1.10,2013-05-18 03:19:00,
2013-05-17 22:34:00,64.9,62.0,29.97,ESE,115,0.0,-999.0,91,-99.99,,,0.29,weatherlink.com 1.10,2013-05-18 03:34:00,
2013-05-17 22:49:00,64.7,62.0,29.97,ESE,121,4.0,-999.0,91,-99.99,,,0.29,weatherlink.com 1.10,2013-05-18 03:49:00,
2013-05-17 23:04:00,65.3,63.0,29.97,SE,132,4.0,-999.0,91,-99.99,,,0.29,weatherlink.com 1.10,2013-05-18 04:04:00,
2013-05-17 23:19:00,65.5,63.0,29.97,SE,136,3.0,-999.0,90,-99.99,,,0.29,weatherlink.com 1.10,2013-05-18 04:19:00,
2013-05-17 23:34:00,65.4,63.0,29.97,SE,132,0.0,-999.0,90,-99.99,,,0.29,weatherlink.com 1.10,2013-05-18 04:34:00,
2013-05-17 23:49:00,65.0,62.0,29.97,SE,128,3.0,-999.0,90,-99.99,,,0.29,weatherlink.com 1.10,2013-05-18 04:49:00,